Accueil
METAR-TAF:

METAR-TAF

Aéroports :

Base aérienne Cameri

Novare, Italie

latitude: 45-31N, longitude: 008-40E, altitude: 178 m

Observation

Le bulletin a été fait il y a 53 minutes, à 09:55 UTC
Vent 4 kt de sud/sud-ouest, variant entre sud-est et ouest
Température 13°C
Humidité 41%
Pression 1014 hPa
Visibilité 10 km ou plus
pas de nuages en-dessous de 1500 mètres et pas de cumulonimbus.

METAR: LIMN 030955Z 21004KT 140V280 CAVOK 13/00 Q1014 RMK SKC VIS MIN 9999 BLU

Heure: 12:48 (10:48 UTC)

Prévision

Le bulletin a été fait il y a 2 heures et 48 minutes, à 08:00 UTC
Prévision valable du 03 à 09 UTC au 03 à 18 UTC
Vent 5 kt de nord/nord-est
Visibilité 10 km ou plus
pas de nuages en-dessous de 1500 mètres et pas de cumulonimbus.

TAF: LIMN 030800Z 0309/0318 02005KT CAVOK

Observations et prévisions météorologiques de plus de 4000 aéroports (messages METAR et TAF).

Les stations disponibles sont représentées par des disques jaunes et rouges sur la carte.

Passer la souris dessus pour voir le nom de la station.

Cliquer dessus pour voir les observations et prévisions météorologiques.

Pour changer de carte: cliquez sur les boutons verts avec une croix noire pour zoomer, sur le bouton vert avec un tiret pour effectuer un zoom arrière, ou sur les flèches vertes pour les cartes adjacentes.


METAR-TAF: